Time;durP1;ratioP1;P1;durP2;ratioP2;P2;SDS_P1;SDS_P2;PMS_P1;PMS_P2;Temp;Humidity;BMP_temperature;BMP_pressure;BME280_temperature;BME280_humidity;BME280_pressure;Samples;Min_cycle;Max_cycle;Signal;HPM_P1;HPM_P2
2022/09/03 00:01:23;;;;;;;2.72;0.35;;;16.90;86.60;;;;;;4921695;28;20039;-78
2022/09/03 00:03:58;;;;;;;4.85;0.30;;;16.90;86.70;;;;;;4937276;28;20955;-79
2022/09/03 00:06:38;;;;;;;6.45;0.30;;;16.80;86.60;;;;;;4937925;28;20047;-78
2022/09/03 00:09:26;;;;;;;5.10;0.45;;;16.90;86.70;;;;;;4949979;28;20062;-78
2022/09/03 00:11:55;;;;;;;2.67;0.40;;;16.80;86.60;;;;;;4949833;28;20101;-78
2022/09/03 00:14:26;;;;;;;3.83;0.35;;;16.80;86.50;;;;;;4935452;28;20866;-78
2022/09/03 00:16:58;;;;;;;2.80;0.60;;;16.80;86.50;;;;;;4919514;28;20496;-78
2022/09/03 00:19:30;;;;;;;1.52;0.30;;;16.80;86.70;;;;;;4948396;28;20050;-79
2022/09/03 00:22:01;;;;;;;2.65;0.30;;;16.70;86.80;;;;;;4917164;28;20073;-78
2022/09/03 00:24:32;;;;;;;3.85;0.32;;;16.70;86.80;;;;;;4947255;28;20098;-80
2022/09/03 00:27:04;;;;;;;2.35;0.40;;;16.70;86.80;;;;;;4935234;28;20051;-80
2022/09/03 00:30:13;;;;;;;3.03;0.20;;;16.70;86.90;;;;;;4933357;28;20123;-77
2022/09/03 00:32:41;;;;;;;3.35;0.20;;;16.60;86.90;;;;;;4949036;28;20405;-81
2022/09/03 00:35:15;;;;;;;2.65;0.32;;;16.50;87.00;;;;;;4933719;28;20098;-82
2022/09/03 00:37:41;;;;;;;2.95;0.35;;;16.50;87.20;;;;;;4917786;28;20086;-78
2022/09/03 00:40:30;;;;;;;1.35;0.17;;;16.50;87.30;;;;;;4934411;28;20043;-81
2022/09/03 00:43:14;;;;;;;1.00;0.30;;;16.50;87.50;;;;;;4936799;28;20157;-79
2022/09/03 00:45:51;;;;;;;3.47;0.32;;;16.40;87.50;;;;;;4942534;28;20062;-81
2022/09/03 00:48:31;;;;;;;5.68;0.38;;;16.40;87.70;;;;;;4939986;28;20047;-78
2022/09/03 00:51:08;;;;;;;0.90;0.30;;;16.30;87.70;;;;;;4957293;28;20110;-78
2022/09/03 00:54:02;;;;;;;2.75;0.30;;;16.30;87.80;;;;;;4926412;28;20082;-78
2022/09/03 00:56:59;;;;;;;4.28;0.43;;;16.20;87.90;;;;;;4954206;28;20062;-78
2022/09/03 00:59:38;;;;;;;0.88;0.22;;;16.20;88.00;;;;;;4951756;28;20043;-78
2022/09/03 01:02:45;;;;;;;2.95;0.20;;;16.20;88.10;;;;;;4925729;28;20134;-78
2022/09/03 01:05:26;;;;;;;3.20;0.43;;;16.20;88.30;;;;;;4951615;28;20062;-81
2022/09/03 01:08:04;;;;;;;3.45;0.55;;;16.10;88.10;;;;;;4953034;28;20054;-80
2022/09/03 01:10:45;;;;;;;0.88;0.50;;;16.10;88.40;;;;;;4953503;28;20113;-78
2022/09/03 01:13:20;;;;;;;1.17;0.20;;;16.10;88.40;;;;;;4940271;28;20054;-81
2022/09/03 01:16:20;;;;;;;2.88;0.30;;;16.10;88.70;;;;;;4950174;28;20066;-78
2022/09/03 01:19:13;;;;;;;8.00;0.40;;;16.10;88.60;;;;;;4948128;28;20043;-78
2022/09/03 01:21:57;;;;;;;1.98;0.20;;;16.10;88.60;;;;;;4936920;28;20163;-79
2022/09/03 01:24:40;;;;;;;4.78;0.52;;;16.00;88.60;;;;;;4934331;28;20050;-78
2022/09/03 01:27:33;;;;;;;1.15;0.30;;;16.00;88.60;;;;;;4949112;28;20055;-81
2022/09/03 01:30:15;;;;;;;4.78;0.30;;;16.00;88.70;;;;;;4947092;28;20055;-80
2022/09/03 01:33:14;;;;;;;1.65;0.30;;;16.00;88.70;;;;;;4936803;28;20094;-78
2022/09/03 01:35:50;;;;;;;4.68;0.40;;;16.00;88.60;;;;;;4908357;28;20059;-79
2022/09/03 01:38:23;;;;;;;;;;;16.00;88.90;;;;;;4944280;28;20054;-80
2022/09/03 01:42:12;;;;;;;3.90;0.20;;;16.00;89.30;;;;;;4932279;28;20129;-78
2022/09/03 01:44:09;;;;;;;0.85;0.20;;;15.90;89.80;;;;;;4949150;28;20537;-79
2022/09/03 01:46:39;;;;;;;2.50;0.30;;;15.90;89.10;;;;;;4923365;28;20682;-81
2022/09/03 01:49:31;;;;;;;1.33;0.20;;;15.90;88.90;;;;;;4918975;28;20055;-82
2022/09/03 01:52:10;;;;;;;2.08;0.20;;;15.90;89.10;;;;;;4940566;28;20102;-81
2022/09/03 01:54:59;;;;;;;1.95;0.20;;;16.00;89.10;;;;;;4924654;28;20051;-81
2022/09/03 01:57:41;;;;;;;4.57;0.30;;;15.90;89.30;;;;;;4952205;28;21644;-79
2022/09/03 02:00:09;;;;;;;2.97;0.30;;;15.90;89.20;;;;;;4950379;28;20043;-79
2022/09/03 02:02:35;;;;;;;6.22;0.63;;;15.90;89.20;;;;;;4953236;28;20074;-82
2022/09/03 02:05:08;;;;;;;5.00;0.22;;;16.00;89.00;;;;;;4941889;28;20130;-77
2022/09/03 02:07:40;;;;;;;0.60;0.20;;;16.00;89.20;;;;;;4954949;28;20054;-78
2022/09/03 02:10:19;;;;;;;4.63;0.25;;;16.00;89.20;;;;;;4951998;28;20051;-79
2022/09/03 02:12:52;;;;;;;1.83;0.30;;;15.90;89.20;;;;;;4920084;28;20395;-78
2022/09/03 02:15:21;;;;;;;4.72;0.22;;;16.00;89.20;;;;;;4938155;28;20043;-80
2022/09/03 02:17:52;;;;;;;9.93;0.30;;;16.00;89.20;;;;;;4921534;28;20051;-78
2022/09/03 02:20:22;;;;;;;2.70;0.20;;;16.00;89.10;;;;;;4936552;28;20057;-78
2022/09/03 02:22:49;;;;;;;2.55;0.20;;;16.00;89.30;;;;;;4954663;28;20038;-78
2022/09/03 02:25:16;;;;;;;1.58;0.30;;;16.00;89.30;;;;;;4937442;28;20093;-78
2022/09/03 02:27:43;;;;;;;2.30;0.60;;;15.90;89.40;;;;;;4951463;28;20039;-80
2022/09/03 02:30:09;;;;;;;1.98;0.38;;;16.00;89.40;;;;;;4938527;28;20263;-78
2022/09/03 02:32:35;;;;;;;2.95;0.20;;;16.00;89.40;;;;;;4939236;28;20062;-81
2022/09/03 02:35:03;;;;;;;0.70;0.20;;;16.00;90.10;;;;;;4920968;28;20047;-78
2022/09/03 02:37:28;;;;;;;2.83;0.52;;;16.00;89.50;;;;;;4919282;28;20066;-81
2022/09/03 02:39:54;;;;;;;2.20;0.22;;;16.00;89.50;;;;;;4937099;28;20047;-78
2022/09/03 02:42:20;;;;;;;4.60;0.40;;;16.00;89.60;;;;;;4920501;28;20097;-82
2022/09/03 02:44:51;;;;;;;0.57;0.20;;;16.00;89.70;;;;;;4917287;28;20043;-80
2022/09/03 02:47:19;;;;;;;2.25;0.20;;;16.00;89.60;;;;;;4951741;28;20473;-81
2022/09/03 02:49:48;;;;;;;3.28;0.30;;;16.10;89.70;;;;;;4920376;28;20094;-78
2022/09/03 02:52:13;;;;;;;2.97;0.20;;;16.10;89.30;;;;;;4921516;28;20050;-81
2022/09/03 02:54:40;;;;;;;1.10;0.20;;;16.10;89.20;;;;;;4936959;28;20048;-78
2022/09/03 02:57:10;;;;;;;1.42;0.30;;;16.10;89.30;;;;;;4922086;28;20162;-81
2022/09/03 02:59:36;;;;;;;2.78;0.30;;;16.10;89.50;;;;;;4947866;28;20054;-80
2022/09/03 03:02:03;;;;;;;1.02;0.22;;;16.10;89.40;;;;;;4940203;28;20046;-80
2022/09/03 03:04:29;;;;;;;0.57;0.22;;;16.20;89.40;;;;;;4952572;28;20066;-78
2022/09/03 03:06:55;;;;;;;4.05;0.20;;;16.20;89.60;;;;;;4951814;28;20157;-78
2022/09/03 03:09:20;;;;;;;4.10;0.40;;;16.20;89.60;;;;;;4936023;28;20129;-81
2022/09/03 03:11:48;;;;;;;3.85;0.30;;;16.10;89.30;;;;;;4952491;28;20049;-80
2022/09/03 03:14:14;;;;;;;4.00;0.30;;;16.10;90.10;;;;;;4948511;28;20043;-81
2022/09/03 03:16:39;;;;;;;0.70;0.20;;;16.10;89.60;;;;;;4949962;28;20123;-78
2022/09/03 03:19:05;;;;;;;1.45;0.30;;;16.10;89.70;;;;;;4935934;28;20047;-82
2022/09/03 03:21:30;;;;;;;1.60;0.50;;;16.20;89.60;;;;;;4934807;28;21482;-79
2022/09/03 03:23:56;;;;;;;1.20;0.30;;;16.20;89.60;;;;;;4920456;29;20962;-78
2022/09/03 03:26:23;;;;;;;5.55;0.30;;;16.10;89.60;;;;;;4952664;28;20073;-81
2022/09/03 03:28:50;;;;;;;0.90;0.20;;;16.10;89.70;;;;;;4950210;28;20043;-78
2022/09/03 03:31:18;;;;;;;0.55;0.28;;;16.10;89.90;;;;;;4934716;28;20071;-79
2022/09/03 03:33:49;;;;;;;2.03;0.30;;;16.10;89.90;;;;;;4923338;28;20039;-79
2022/09/03 03:36:15;;;;;;;0.52;0.20;;;16.10;89.70;;;;;;4932564;28;20162;-78
2022/09/03 03:38:43;;;;;;;2.78;0.30;;;16.10;89.70;;;;;;4955484;28;20143;-80
2022/09/03 03:41:17;;;;;;;2.40;0.38;;;16.00;89.70;;;;;;4954364;28;20039;-78
2022/09/03 03:43:43;;;;;;;2.10;0.30;;;16.10;89.90;;;;;;4956583;28;20046;-77
2022/09/03 03:46:10;;;;;;;3.75;0.30;;;16.00;89.80;;;;;;4942494;28;20495;-80
2022/09/03 03:48:37;;;;;;;6.43;0.60;;;16.00;89.80;;;;;;4953917;28;20043;-78
2022/09/03 03:51:05;;;;;;;4.18;0.20;;;16.00;89.70;;;;;;4925627;28;20522;-77
2022/09/03 03:53:32;;;;;;;3.17;0.57;;;16.00;89.80;;;;;;4956213;28;20078;-78
2022/09/03 03:56:00;;;;;;;2.50;0.30;;;15.90;90.00;;;;;;4944871;28;20043;-77
2022/09/03 03:58:27;;;;;;;3.17;0.32;;;15.90;90.00;;;;;;4921558;29;20130;-80
2022/09/03 04:00:53;;;;;;;2.33;0.52;;;15.90;90.10;;;;;;4955931;28;20043;-78
2022/09/03 04:03:19;;;;;;;1.08;0.20;;;15.90;90.00;;;;;;4954150;28;20530;-77
2022/09/03 04:05:59;;;;;;;0.70;0.20;;;15.90;90.00;;;;;;4927837;28;20521;-79
2022/09/03 04:08:26;;;;;;;1.30;0.30;;;15.90;90.10;;;;;;4925029;28;20796;-78
2022/09/03 04:10:52;;;;;;;3.15;0.30;;;15.90;90.10;;;;;;4942896;28;20122;-77
2022/09/03 04:13:17;;;;;;;4.50;0.45;;;15.80;90.10;;;;;;4942602;28;20049;-77
2022/09/03 04:15:43;;;;;;;1.40;0.30;;;15.90;90.10;;;;;;4955490;28;20051;-81
2022/09/03 04:18:09;;;;;;;0.95;0.38;;;15.80;90.10;;;;;;4938356;28;20061;-81
2022/09/03 04:20:35;;;;;;;6.40;0.20;;;15.80;90.20;;;;;;4919991;28;20047;-80
2022/09/03 04:23:01;;;;;;;1.40;0.30;;;15.70;90.30;;;;;;4956329;28;20046;-77
2022/09/03 04:25:27;;;;;;;6.30;0.35;;;15.70;90.40;;;;;;4954996;28;20043;-77
2022/09/03 04:27:53;;;;;;;1.73;0.38;;;15.70;90.40;;;;;;4955104;28;20120;-77
2022/09/03 04:30:19;;;;;;;7.70;0.43;;;15.70;90.40;;;;;;4918049;28;20121;-77
2022/09/03 04:32:53;;;;;;;0.77;0.30;;;15.60;90.40;;;;;;4953998;28;20047;-77
2022/09/03 04:35:24;;;;;;;3.60;0.30;;;15.70;90.50;;;;;;4948796;28;20438;-80
2022/09/03 04:37:50;;;;;;;3.85;0.50;;;15.50;90.50;;;;;;4949301;28;20047;-79
2022/09/03 04:40:17;;;;;;;1.25;0.30;;;15.50;90.70;;;;;;4947681;28;20563;-80
2022/09/03 04:42:42;;;;;;;1.77;0.40;;;15.50;90.80;;;;;;4922554;28;20039;-77
2022/09/03 04:45:09;;;;;;;3.78;0.38;;;15.60;90.90;;;;;;4948851;28;20121;-79
2022/09/03 04:47:36;;;;;;;1.92;0.40;;;15.40;90.80;;;;;;4918563;28;20067;-80
2022/09/03 04:50:03;;;;;;;5.05;0.30;;;15.40;90.90;;;;;;4948907;28;20054;-77
2022/09/03 04:52:30;;;;;;;6.95;0.40;;;15.40;91.00;;;;;;4936367;28;20039;-80
2022/09/03 04:54:56;;;;;;;2.33;0.75;;;15.30;91.10;;;;;;4946882;28;20059;-77
2022/09/03 04:57:22;;;;;;;4.47;0.50;;;15.30;91.10;;;;;;4948722;28;20035;-77
2022/09/03 04:59:48;;;;;;;2.40;0.38;;;15.30;91.10;;;;;;4947234;28;20078;-77
2022/09/03 05:02:14;;;;;;;2.72;0.30;;;15.30;91.10;;;;;;4936116;28;20059;-77
2022/09/03 05:04:40;;;;;;;4.30;0.30;;;15.30;91.20;;;;;;4931477;28;20082;-80
2022/09/03 05:07:06;;;;;;;1.50;0.32;;;15.30;91.20;;;;;;4950089;28;20055;-77
2022/09/03 05:09:32;;;;;;;1.00;0.40;;;15.30;91.30;;;;;;4934875;28;20070;-77
2022/09/03 05:11:58;;;;;;;1.63;0.30;;;15.30;91.40;;;;;;4948985;28;20043;-77
2022/09/03 05:14:23;;;;;;;6.43;0.35;;;15.20;91.40;;;;;;4944839;28;20067;-78
2022/09/03 05:16:49;;;;;;;1.02;0.30;;;15.30;91.40;;;;;;4932054;28;20058;-77
2022/09/03 05:19:15;;;;;;;1.73;0.30;;;15.20;91.40;;;;;;4931572;28;20043;-78
2022/09/03 05:21:41;;;;;;;4.60;0.50;;;15.30;91.50;;;;;;4948457;28;20047;-77
2022/09/03 05:24:07;;;;;;;6.22;0.60;;;15.20;91.60;;;;;;4917966;28;20217;-79
2022/09/03 05:26:37;;;;;;;1.75;0.47;;;15.20;91.60;;;;;;4935554;28;20058;-78
2022/09/03 05:29:07;;;;;;;6.53;0.80;;;15.30;91.90;;;;;;4920132;28;20054;-78
2022/09/03 05:31:35;;;;;;;3.30;0.50;;;15.30;91.60;;;;;;4936913;28;20047;-78
2022/09/03 05:34:02;;;;;;;2.72;0.32;;;15.50;91.60;;;;;;4937557;28;20102;-80
2022/09/03 05:36:30;;;;;;;2.53;0.30;;;15.50;91.50;;;;;;4933284;28;20046;-78
2022/09/03 05:38:58;;;;;;;2.05;0.30;;;15.50;91.50;;;;;;4952848;28;20078;-78
2022/09/03 05:41:23;;;;;;;5.95;0.65;;;15.50;91.50;;;;;;4932273;28;20130;-77
2022/09/03 05:43:54;;;;;;;2.65;0.63;;;15.50;91.60;;;;;;4947371;28;20051;-77
2022/09/03 05:46:25;;;;;;;5.65;0.50;;;15.50;91.60;;;;;;4933327;28;20563;-79
2022/09/03 05:48:51;;;;;;;2.67;0.20;;;15.50;91.60;;;;;;4948050;28;20043;-79
2022/09/03 05:51:17;;;;;;;0.85;0.50;;;15.50;91.70;;;;;;4932920;28;20423;-79
2022/09/03 05:53:45;;;;;;;2.67;0.30;;;15.50;91.70;;;;;;4948062;28;20040;-80
2022/09/03 05:56:17;;;;;;;3.03;0.20;;;15.50;91.80;;;;;;4918990;28;20047;-82
2022/09/03 05:58:47;;;;;;;2.15;0.35;;;15.60;91.80;;;;;;4935630;28;20035;-77
2022/09/03 06:01:13;;;;;;;2.22;0.40;;;15.60;91.80;;;;;;4948944;28;20131;-81
2022/09/03 06:03:40;;;;;;;3.33;0.45;;;15.70;91.90;;;;;;4932982;28;20145;-82
2022/09/03 06:06:06;;;;;;;5.95;0.40;;;15.80;91.90;;;;;;4950952;28;20056;-80
2022/09/03 06:08:33;;;;;;;4.07;0.60;;;15.90;91.80;;;;;;4951616;28;20077;-78
2022/09/03 06:11:00;;;;;;;4.30;0.63;;;16.40;91.40;;;;;;4951823;28;20415;-79
2022/09/03 06:13:26;;;;;;;3.00;0.43;;;16.70;91.30;;;;;;4933508;28;20047;-81
2022/09/03 06:16:03;;;;;;;4.60;0.32;;;17.50;90.80;;;;;;4923414;28;20381;-78
2022/09/03 06:18:29;;;;;;;4.53;0.82;;;18.80;90.10;;;;;;4935188;28;20043;-80
2022/09/03 06:21:00;;;;;;;2.63;0.47;;;19.70;87.50;;;;;;4937302;28;20575;-78
2022/09/03 06:23:27;;;;;;;2.95;0.50;;;20.00;86.30;;;;;;4936601;28;20051;-78
2022/09/03 06:26:12;;;;;;;1.65;0.30;;;19.80;85.50;;;;;;4954489;28;20046;-80
2022/09/03 06:28:42;;;;;;;5.03;0.50;;;19.40;85.30;;;;;;4939342;28;20049;-85
2022/09/03 06:31:10;;;;;;;2.88;0.35;;;20.10;85.70;;;;;;4953665;28;20059;-83
2022/09/03 06:33:37;;;;;;;8.45;0.82;;;20.80;84.20;;;;;;4952300;28;20444;-80
2022/09/03 06:36:06;;;;;;;2.10;0.50;;;20.80;83.50;;;;;;4948727;28;20071;-80
2022/09/03 06:38:36;;;;;;;2.88;0.60;;;21.10;82.70;;;;;;4932347;28;20039;-82
2022/09/03 06:41:09;;;;;;;5.85;0.70;;;21.90;82.30;;;;;;4930232;28;20483;-81
2022/09/03 06:43:37;;;;;;;2.92;0.50;;;23.30;81.00;;;;;;4915639;29;20500;-86
2022/09/03 06:46:09;;;;;;;1.52;0.70;;;24.00;77.80;;;;;;4947118;28;21887;-82
2022/09/03 06:48:36;;;;;;;7.50;0.60;;;24.00;77.50;;;;;;4930487;28;20079;-81
2022/09/03 06:51:04;;;;;;;4.03;0.57;;;24.50;78.30;;;;;;4909699;29;20040;-80
2022/09/03 06:53:41;;;;;;;4.30;0.60;;;25.50;77.20;;;;;;4924959;28;20043;-79
2022/09/03 06:56:09;;;;;;;8.80;1.38;;;26.10;75.50;;;;;;4943320;28;20055;-81
2022/09/03 06:58:43;;;;;;;11.27;0.65;;;26.60;74.10;;;;;;4910635;28;21676;-83
2022/09/03 07:01:18;;;;;;;6.90;0.68;;;26.30;72.30;;;;;;4915167;28;20518;-80
2022/09/03 07:03:45;;;;;;;13.57;1.00;;;26.70;73.20;;;;;;4927971;28;20633;-81
2022/09/03 07:06:13;;;;;;;2.78;0.50;;;26.20;71.90;;;;;;4945736;28;20541;-80
2022/09/03 07:08:41;;;;;;;6.40;0.70;;;26.20;71.50;;;;;;4944304;28;20656;-80
2022/09/03 07:11:09;;;;;;;3.00;0.50;;;25.60;71.90;;;;;;4914960;28;20047;-79
2022/09/03 07:13:36;;;;;;;3.67;0.43;;;24.90;73.90;;;;;;4920928;28;20138;-78
2022/09/03 07:16:04;;;;;;;5.10;0.40;;;24.10;75.00;;;;;;4951292;28;20134;-81
2022/09/03 07:18:31;;;;;;;1.20;0.50;;;23.10;75.20;;;;;;4919213;28;20088;-79
2022/09/03 07:21:08;;;;;;;4.85;0.77;;;22.80;76.40;;;;;;4919081;28;20154;-79
2022/09/03 07:23:36;;;;;;;4.80;0.52;;;22.50;76.50;;;;;;4903199;28;20448;-78
2022/09/03 07:26:07;;;;;;;3.13;0.57;;;22.20;77.40;;;;;;4935187;28;20042;-81
2022/09/03 07:28:35;;;;;;;1.90;0.52;;;21.70;78.90;;;;;;4949928;28;20047;-81
2022/09/03 07:31:08;;;;;;;1.23;0.43;;;21.40;78.90;;;;;;4934947;28;20035;-82
2022/09/03 07:33:34;;;;;;;2.17;0.43;;;21.00;79.70;;;;;;4920937;28;20047;-80
2022/09/03 07:36:05;;;;;;;3.13;0.80;;;20.80;80.50;;;;;;4937545;28;20047;-78
2022/09/03 07:38:31;;;;;;;5.25;0.82;;;20.40;81.50;;;;;;4915320;28;20047;-77
2022/09/03 07:40:58;;;;;;;2.15;0.57;;;20.20;82.30;;;;;;4954623;28;21977;-80
2022/09/03 07:43:26;;;;;;;1.02;0.60;;;20.10;82.30;;;;;;4952466;28;20047;-79
2022/09/03 07:45:54;;;;;;;6.03;0.60;;;20.10;82.80;;;;;;4942325;28;20058;-79
2022/09/03 07:48:20;;;;;;;7.03;0.52;;;20.00;82.90;;;;;;4936949;28;20089;-79
2022/09/03 07:50:46;;;;;;;3.97;0.70;;;19.90;83.40;;;;;;4937012;28;20043;-80
2022/09/03 07:53:12;;;;;;;4.78;0.65;;;19.90;83.70;;;;;;4939460;28;20054;-78
2022/09/03 07:55:39;;;;;;;10.27;0.40;;;19.90;84.40;;;;;;4922372;28;20051;-77
2022/09/03 07:58:04;;;;;;;1.13;0.38;;;19.90;84.20;;;;;;4926840;28;20050;-78
2022/09/03 08:00:32;;;;;;;4.38;0.57;;;20.10;84.50;;;;;;4920975;28;20043;-79
2022/09/03 08:03:04;;;;;;;4.47;0.40;;;20.00;83.30;;;;;;4956177;28;20039;-79
2022/09/03 08:05:31;;;;;;;3.65;0.70;;;20.20;83.90;;;;;;4956469;28;20086;-78
2022/09/03 08:08:00;;;;;;;1.02;0.50;;;20.30;83.40;;;;;;4934831;28;21925;-78
2022/09/03 08:10:27;;;;;;;2.88;0.60;;;20.40;83.10;;;;;;4935320;28;20721;-79
2022/09/03 08:12:53;;;;;;;2.35;0.60;;;20.50;84.00;;;;;;4955008;28;20042;-79
2022/09/03 08:15:18;;;;;;;3.05;0.63;;;20.70;83.70;;;;;;4938842;28;20086;-80
2022/09/03 08:17:44;;;;;;;3.50;0.47;;;20.70;82.70;;;;;;4955135;28;20054;-82
2022/09/03 08:20:10;;;;;;;1.38;0.95;;;20.90;82.40;;;;;;4920475;28;20051;-77
2022/09/03 08:22:36;;;;;;;12.68;1.50;;;21.10;82.20;;;;;;4941626;28;20090;-79
2022/09/03 08:25:02;;;;;;;4.78;0.50;;;21.30;81.80;;;;;;4947207;28;20051;-80
2022/09/03 08:27:29;;;;;;;1.17;0.38;;;21.30;82.10;;;;;;4928278;28;20051;-80
2022/09/03 08:29:54;;;;;;;1.20;0.57;;;21.50;82.20;;;;;;4959507;28;20841;-79
2022/09/03 08:32:20;;;;;;;227.75;26.73;;;21.50;82.10;;;;;;4943094;28;20085;-80
2022/09/03 08:34:45;;;;;;;5.38;0.40;;;21.70;81.90;;;;;;4944414;28;20495;-78
2022/09/03 08:37:12;;;;;;;4.50;0.73;;;21.90;81.20;;;;;;4935669;28;20090;-77
2022/09/03 08:39:38;;;;;;;56.20;6.20;;;21.80;81.00;;;;;;4954329;28;20071;-78
2022/09/03 08:42:43;;;;;;;4.63;0.82;;;21.80;80.90;;;;;;4957070;28;20047;-80
2022/09/03 08:45:11;;;;;;;22.83;2.45;;;21.90;81.10;;;;;;4952940;28;20094;-80
2022/09/03 08:47:47;;;;;;;3.47;0.60;;;21.60;80.50;;;;;;4953126;28;20055;-77
2022/09/03 08:50:28;;;;;;;4.00;0.77;;;21.80;82.20;;;;;;4939128;28;20043;-80
2022/09/03 08:53:00;;;;;;;6.22;0.60;;;21.90;82.50;;;;;;4939370;28;20073;-81
2022/09/03 08:55:27;;;;;;;5.18;0.60;;;22.20;81.70;;;;;;4940070;28;21835;-80
2022/09/03 08:58:09;;;;;;;1.88;0.50;;;22.10;80.10;;;;;;4923192;28;20051;-80
2022/09/03 09:00:41;;;;;;;5.93;1.02;;;22.20;80.50;;;;;;4948943;28;20055;-79
2022/09/03 09:03:21;;;;;;;3.20;0.38;;;22.10;79.80;;;;;;4918560;28;20043;-78
2022/09/03 09:06:19;;;;;;;2.05;0.55;;;22.30;80.70;;;;;;4953114;28;20071;-78
2022/09/03 09:09:10;;;;;;;3.38;0.50;;;22.20;80.60;;;;;;4878036;28;20047;-79
2022/09/03 09:12:03;;;;;;;1.50;0.50;;;22.20;79.20;;;;;;4955148;28;20039;-78
2022/09/03 09:14:49;;;;;;;3.80;0.60;;;22.30;79.50;;;;;;4916107;28;20051;-80
2022/09/03 09:17:33;;;;;;;1.98;0.60;;;22.50;80.60;;;;;;4922520;28;20132;-77
2022/09/03 09:20:01;;;;;;;3.40;0.68;;;22.70;79.90;;;;;;4937305;28;20042;-80
2022/09/03 09:22:42;;;;;;;2.00;0.40;;;22.80;80.50;;;;;;4958809;28;20114;-80
2022/09/03 09:25:13;;;;;;;2.55;0.50;;;23.00;79.80;;;;;;4941375;28;20078;-77
2022/09/03 09:28:05;;;;;;;6.30;0.60;;;23.20;79.30;;;;;;4954556;28;20047;-77
2022/09/03 09:30:31;;;;;;;4.70;0.50;;;23.30;78.50;;;;;;4956551;28;20055;-78
2022/09/03 09:32:59;;;;;;;4.03;0.57;;;23.20;79.10;;;;;;4926418;28;20051;-81
2022/09/03 09:35:25;;;;;;;7.32;0.60;;;23.30;79.50;;;;;;4943649;28;20059;-80
2022/09/03 09:37:59;;;;;;;12.98;0.93;;;23.50;79.30;;;;;;4943528;28;20039;-80
2022/09/03 09:40:42;;;;;;;7.60;0.55;;;23.60;79.30;;;;;;4955313;28;20380;-78
2022/09/03 09:43:11;;;;;;;3.90;0.90;;;23.80;78.50;;;;;;4876518;28;20039;-77
2022/09/03 09:45:48;;;;;;;3.10;0.43;;;23.70;77.80;;;;;;4905169;28;20051;-77
2022/09/03 09:48:30;;;;;;;2.05;0.60;;;23.70;77.80;;;;;;4927014;28;20066;-78
2022/09/03 09:51:10;;;;;;;3.83;0.52;;;23.90;77.80;;;;;;4953735;28;20145;-77
2022/09/03 09:53:35;;;;;;;4.90;0.45;;;23.90;77.50;;;;;;4920572;28;20182;-79
2022/09/03 09:56:04;;;;;;;6.63;0.50;;;23.90;77.30;;;;;;4936340;28;21966;-80
2022/09/03 09:58:31;;;;;;;5.70;0.75;;;24.00;77.40;;;;;;4944968;28;20087;-80
2022/09/03 10:01:12;;;;;;;5.15;0.50;;;23.90;77.20;;;;;;4932819;28;20078;-80
2022/09/03 10:03:48;;;;;;;4.63;0.43;;;23.90;76.30;;;;;;4948773;28;20650;-76
2022/09/03 10:09:06;;;;;;;8.50;1.35;;;24.10;78.10;;;;;;4947156;28;20062;-79
2022/09/03 10:11:39;;;;;;;5.53;0.60;;;24.30;77.50;;;;;;4949717;28;21622;-78
2022/09/03 10:14:17;;;;;;;5.50;0.63;;;24.30;76.80;;;;;;4937211;28;20039;-77
2022/09/03 10:16:48;;;;;;;10.68;0.50;;;24.30;75.20;;;;;;4938034;28;20053;-77
2022/09/03 10:19:21;;;;;;;4.85;0.50;;;24.50;77.00;;;;;;4931851;28;20118;-78
2022/09/03 10:22:04;;;;;;;2.33;0.60;;;24.50;76.40;;;;;;4951679;28;20051;-77
2022/09/03 10:24:38;;;;;;;4.45;0.40;;;24.30;74.40;;;;;;4920589;28;20055;-79
2022/09/03 10:27:08;;;;;;;2.63;0.50;;;24.30;75.40;;;;;;4923019;28;20039;-79
2022/09/03 10:29:35;;;;;;;6.50;0.93;;;24.30;75.00;;;;;;4952898;28;21789;-81
2022/09/03 10:32:01;;;;;;;3.25;0.30;;;24.40;75.80;;;;;;4916454;28;20058;-77
2022/09/03 10:35:00;;;;;;;3.90;0.30;;;24.50;75.00;;;;;;4932484;28;20536;-80
2022/09/03 10:37:48;;;;;;;1.42;0.47;;;24.50;74.60;;;;;;4953745;28;20098;-80
2022/09/03 10:44:07;;;;;;;5.07;0.50;;;24.80;75.90;;;;;;4937755;28;20050;-78
2022/09/03 10:46:55;;;;;;;1.83;0.50;;;25.10;75.00;;;;;;4957692;28;20039;-78
2022/09/03 10:49:42;;;;;;;4.15;0.43;;;25.20;74.50;;;;;;4936595;28;20043;-79
2022/09/03 10:52:31;;;;;;;3.75;0.45;;;25.30;73.50;;;;;;4925195;28;20090;-77
2022/09/03 10:55:22;;;;;;;5.97;0.40;;;25.20;73.10;;;;;;4920890;28;20051;-81
2022/09/03 10:58:02;;;;;;;2.33;0.40;;;25.30;72.90;;;;;;4955745;28;20046;-81
2022/09/03 11:00:31;;;;;;;0.85;0.30;;;25.60;72.00;;;;;;4937885;28;20117;-79
2022/09/03 11:03:14;;;;;;;11.50;0.73;;;25.30;71.30;;;;;;4952349;28;20129;-81
2022/09/03 11:06:05;;;;;;;3.72;0.60;;;25.30;71.00;;;;;;4937249;28;20054;-80
2022/09/03 11:08:38;;;;;;;2.85;0.40;;;25.30;71.90;;;;;;4936378;28;20051;-79
2022/09/03 11:11:32;;;;;;;3.88;0.38;;;25.20;71.90;;;;;;4922328;28;20051;-80
2022/09/03 11:14:12;;;;;;;2.08;0.38;;;25.30;71.00;;;;;;4917305;28;20074;-82
2022/09/03 11:16:45;;;;;;;5.10;0.45;;;25.50;71.70;;;;;;4953880;28;20051;-82
2022/09/03 11:19:16;;;;;;;0.82;0.35;;;25.50;70.50;;;;;;4949515;28;20050;-82
2022/09/03 11:21:42;;;;;;;4.15;0.60;;;25.60;71.20;;;;;;4951898;28;20102;-82
2022/09/03 11:24:19;;;;;;;9.07;1.00;;;25.60;72.30;;;;;;4936979;28;20307;-80
2022/09/03 11:27:01;;;;;;;3.47;0.63;;;25.60;69.40;;;;;;4958174;28;20075;-80
2022/09/03 11:29:48;;;;;;;1.33;0.40;;;25.50;69.90;;;;;;4933986;28;20090;-79
2022/09/03 11:32:33;;;;;;;3.00;0.50;;;25.30;68.40;;;;;;4936955;28;20579;-81
2022/09/03 11:34:59;;;;;;;3.25;0.50;;;25.30;69.90;;;;;;4935399;28;20055;-80
2022/09/03 11:37:25;;;;;;;3.22;0.50;;;25.20;70.40;;;;;;4947860;28;20043;-82
2022/09/03 11:40:15;;;;;;;3.85;0.50;;;25.30;70.50;;;;;;4936281;28;20043;-82
2022/09/03 11:42:42;;;;;;;3.70;0.50;;;25.10;69.20;;;;;;4924991;28;20051;-79
2022/09/03 11:45:26;;;;;;;5.85;0.50;;;25.30;69.50;;;;;;4952775;28;20558;-80
2022/09/03 11:47:53;;;;;;;3.25;0.40;;;25.20;69.20;;;;;;4927386;28;20144;-82
2022/09/03 11:50:23;;;;;;;2.50;0.45;;;25.30;70.30;;;;;;4920828;28;20047;-81
2022/09/03 11:53:10;;;;;;;4.45;0.50;;;25.50;70.10;;;;;;4931224;28;20058;-81
2022/09/03 11:56:05;;;;;;;2.63;0.50;;;25.50;67.90;;;;;;4909288;28;20102;-81
2022/09/03 11:58:33;;;;;;;1.47;0.40;;;25.60;69.90;;;;;;4907626;28;21143;-82
2022/09/03 12:01:02;;;;;;;3.40;0.50;;;25.60;68.20;;;;;;4921410;28;20078;-82
2022/09/03 12:03:42;;;;;;;16.90;1.52;;;25.60;68.10;;;;;;4918586;28;20110;-82
2022/09/03 12:06:30;;;;;;;6.68;0.40;;;25.60;68.70;;;;;;4947802;28;20070;-82
2022/09/03 12:09:05;;;;;;;1.77;0.38;;;25.60;67.50;;;;;;4910764;28;20047;-82
2022/09/03 12:11:43;;;;;;;5.05;0.63;;;25.60;68.30;;;;;;4943920;28;20058;-81
2022/09/03 12:14:37;;;;;;;4.60;0.43;;;25.70;67.90;;;;;;4939118;28;20123;-79
2022/09/03 12:17:12;;;;;;;4.38;0.50;;;25.80;68.90;;;;;;4930751;28;20047;-82
2022/09/03 12:19:44;;;;;;;2.97;0.43;;;25.70;67.60;;;;;;4947766;28;20170;-80
2022/09/03 12:22:15;;;;;;;4.88;0.30;;;25.70;66.50;;;;;;4932555;28;20122;-79
2022/09/03 12:24:43;;;;;;;9.18;0.70;;;25.60;67.50;;;;;;4931153;28;20043;-81
2022/09/03 12:27:17;;;;;;;1.73;0.30;;;25.60;67.20;;;;;;4939869;28;20039;-78
2022/09/03 12:29:58;;;;;;;6.32;1.17;;;25.60;66.30;;;;;;4942478;28;20043;-79
2022/09/03 12:32:26;;;;;;;3.08;0.68;;;25.40;65.60;;;;;;4941706;28;20105;-79
2022/09/03 12:34:53;;;;;;;2.33;0.65;;;25.40;67.00;;;;;;4921510;28;20051;-80
2022/09/03 12:37:24;;;;;;;4.95;0.68;;;25.30;66.60;;;;;;4953489;28;20126;-82
2022/09/03 12:39:52;;;;;;;2.75;0.30;;;25.50;67.00;;;;;;4940564;28;20078;-80
2022/09/03 12:42:27;;;;;;;5.18;0.40;;;25.50;67.50;;;;;;4940500;28;20035;-79
2022/09/03 12:44:53;;;;;;;0.88;0.40;;;25.50;66.50;;;;;;4956624;28;20488;-82
2022/09/03 12:47:23;;;;;;;4.88;0.60;;;25.50;67.30;;;;;;4942345;28;20039;-79
2022/09/03 12:49:57;;;;;;;5.22;0.50;;;25.50;67.20;;;;;;4956962;28;20046;-79
2022/09/03 12:52:37;;;;;;;1.63;0.47;;;25.30;67.10;;;;;;4938712;28;20047;-82
2022/09/03 12:55:12;;;;;;;5.32;0.60;;;25.50;68.00;;;;;;4943622;28;20044;-81
2022/09/03 12:57:44;;;;;;;0.52;0.30;;;25.60;67.00;;;;;;4942857;28;20035;-80
2022/09/03 13:00:14;;;;;;;2.28;0.40;;;25.60;66.40;;;;;;4939028;28;20051;-79
2022/09/03 13:02:52;;;;;;;5.15;0.47;;;25.50;66.10;;;;;;4943610;28;20047;-80
2022/09/03 13:05:23;;;;;;;5.13;0.30;;;25.50;66.40;;;;;;4941796;28;20049;-82
2022/09/03 13:07:53;;;;;;;3.20;0.47;;;25.60;67.00;;;;;;4970010;28;20082;-80
2022/09/03 13:10:32;;;;;;;3.40;0.50;;;25.50;66.20;;;;;;4942181;28;20047;-81
2022/09/03 13:13:00;;;;;;;3.38;0.45;;;25.50;65.80;;;;;;4924587;28;20653;-81
2022/09/03 13:15:27;;;;;;;6.22;0.38;;;25.40;67.40;;;;;;4923408;28;20123;-83
2022/09/03 13:18:08;;;;;;;2.20;0.40;;;25.50;67.00;;;;;;4954432;28;20051;-81
2022/09/03 13:20:52;;;;;;;3.10;0.50;;;25.40;65.50;;;;;;4952099;28;20047;-81